createdAt,value
2024-03-24T00:00:45.428Z,3.6480
2024-03-24T00:01:50.321Z,3.6213
2024-03-24T00:02:55.106Z,3.6347
2024-03-24T00:04:00.033Z,3.6347
2024-03-24T00:05:04.884Z,3.7335
2024-03-24T00:06:09.666Z,3.7602
2024-03-24T00:07:14.530Z,3.6614
2024-03-24T00:08:19.309Z,3.8457
2024-03-24T00:09:24.205Z,3.7335
2024-03-24T00:10:29.246Z,3.6908
2024-03-24T00:11:33.999Z,3.7335
2024-03-24T00:12:38.778Z,3.7335
2024-03-24T00:13:43.656Z,3.8029
2024-03-24T00:14:48.511Z,3.7335
2024-03-24T00:15:53.254Z,3.7896
2024-03-24T00:16:58.049Z,3.7602
2024-03-24T00:18:02.862Z,3.8457
2024-03-24T00:19:07.748Z,3.8029
2024-03-24T00:20:12.513Z,3.7335
2024-03-24T00:21:17.444Z,3.8457
2024-03-24T00:22:22.391Z,3.8457
2024-03-24T00:23:27.161Z,3.9284
2024-03-24T00:24:31.931Z,3.9284
2024-03-24T00:25:36.745Z,3.9151
2024-03-24T00:26:41.523Z,3.9017
2024-03-24T00:27:46.359Z,3.9979
2024-03-24T00:28:51.197Z,3.9017
2024-03-24T00:29:55.989Z,3.9578
2024-03-24T00:31:00.840Z,3.8457
2024-03-24T00:32:05.738Z,3.9017
2024-03-24T00:33:10.703Z,3.9712
2024-03-24T00:34:15.667Z,3.9979
2024-03-24T00:35:20.416Z,3.9845
2024-03-24T00:36:25.277Z,3.9578
2024-03-24T00:37:30.224Z,4.0139
2024-03-24T00:38:35.206Z,3.9017
2024-03-24T00:39:42.501Z,3.8590
2024-03-24T00:40:50.702Z,3.8724
2024-03-24T00:41:55.515Z,3.8590
2024-03-24T00:43:00.480Z,3.8457
2024-03-24T00:44:05.391Z,3.8163
2024-03-24T00:45:10.167Z,3.8029
2024-03-24T00:46:15.027Z,3.8029
2024-03-24T00:47:19.974Z,3.8296
2024-03-24T00:48:24.736Z,3.7896
2024-03-24T00:49:29.621Z,3.7602
2024-03-24T00:50:34.550Z,3.8857
2024-03-24T00:51:39.309Z,3.8724
2024-03-24T00:52:44.133Z,3.9418
2024-03-24T00:53:48.922Z,3.9151
2024-03-24T00:54:53.740Z,3.8590
2024-03-24T00:55:58.494Z,3.8724
2024-03-24T00:57:03.331Z,3.8163
2024-03-24T00:58:08.136Z,3.8163
2024-03-24T00:59:12.933Z,3.7896
2024-03-24T01:00:17.734Z,3.7469
2024-03-24T01:01:22.512Z,3.7602
2024-03-24T01:02:27.320Z,3.7469
2024-03-24T01:03:32.107Z,3.7469
2024-03-24T01:04:36.858Z,3.7736
2024-03-24T01:05:41.736Z,3.6908
2024-03-24T01:06:46.675Z,3.7469
2024-03-24T01:07:51.460Z,3.7335
2024-03-24T01:08:56.304Z,3.6614
2024-03-24T01:10:01.076Z,3.6614
2024-03-24T01:11:05.896Z,3.6614
2024-03-24T01:12:10.855Z,3.6774
2024-03-24T01:13:15.610Z,3.6213
2024-03-24T01:14:20.464Z,3.6480
2024-03-24T01:15:25.278Z,3.6614
2024-03-24T01:16:30.053Z,3.6213
2024-03-24T01:17:34.847Z,3.5653
2024-03-24T01:18:39.668Z,3.5492
2024-03-24T01:19:44.463Z,3.5359
2024-03-24T01:20:49.317Z,3.5920
2024-03-24T01:21:54.238Z,3.5653
2024-03-24T01:22:58.978Z,3.5092
2024-03-24T01:24:03.854Z,3.4932
2024-03-24T01:25:08.822Z,3.4344
2024-03-24T01:26:13.557Z,3.5225
2024-03-24T01:27:18.382Z,3.4932
2024-03-24T01:28:23.341Z,3.4504
2024-03-24T01:29:28.256Z,3.4932
2024-03-24T01:30:33.029Z,3.4932
2024-03-24T01:31:37.894Z,3.5225
2024-03-24T01:32:42.698Z,3.4932
2024-03-24T01:33:47.499Z,3.4932
2024-03-24T01:34:52.292Z,3.4932
2024-03-24T01:35:57.108Z,3.5786
2024-03-24T01:37:02.081Z,3.4798
2024-03-24T01:38:07.028Z,3.4344
2024-03-24T01:39:11.961Z,3.4798
2024-03-24T01:40:16.735Z,3.3650
2024-03-24T01:41:21.605Z,3.3944
2024-03-24T01:42:26.507Z,3.4077
2024-03-24T01:43:31.305Z,3.3516
2024-03-24T01:44:36.067Z,3.3223
2024-03-24T01:45:40.878Z,3.2822
2024-03-24T01:46:45.744Z,3.2956
2024-03-24T01:47:50.520Z,3.2662
2024-03-24T01:48:55.335Z,3.1968
2024-03-24T01:50:00.232Z,3.1834
2024-03-24T01:51:04.947Z,3.1701
2024-03-24T01:52:09.922Z,3.1540
2024-03-24T01:53:14.853Z,3.1834
2024-03-24T01:54:19.637Z,3.1407
2024-03-24T01:55:24.472Z,3.1140
2024-03-24T01:56:29.283Z,3.0579
2024-03-24T01:57:34.105Z,3.0846
2024-03-24T01:58:38.886Z,3.0285
2024-03-24T01:59:43.668Z,3.0152
2024-03-24T02:00:48.590Z,3.0152
2024-03-24T02:01:53.586Z,2.9297
2024-03-24T02:02:58.520Z,2.8897
2024-03-24T02:04:03.465Z,2.8737
2024-03-24T02:05:08.416Z,2.8470
2024-03-24T02:06:13.199Z,2.8603
2024-03-24T02:07:18.009Z,2.8897
2024-03-24T02:08:22.993Z,2.8042
2024-03-24T02:09:27.958Z,2.7214
2024-03-24T02:10:32.692Z,2.7481
2024-03-24T02:11:37.526Z,2.7348
2024-03-24T02:12:42.499Z,2.7214
2024-03-24T02:13:47.476Z,2.7481
2024-03-24T02:14:52.404Z,2.6894
2024-03-24T02:15:57.201Z,2.7054
2024-03-24T02:17:02.006Z,2.6760
2024-03-24T02:18:07.010Z,2.6894
2024-03-24T02:19:11.827Z,2.6066
2024-03-24T02:20:16.646Z,2.6333
2024-03-24T02:21:21.526Z,2.6760
2024-03-24T02:22:26.288Z,2.6200
2024-03-24T02:23:31.137Z,2.5505
2024-03-24T02:24:36.087Z,2.5372
2024-03-24T02:25:40.874Z,2.5212
2024-03-24T02:26:45.710Z,2.4945
2024-03-24T02:27:50.677Z,2.4250
2024-03-24T02:28:55.548Z,2.4250
2024-03-24T02:30:00.313Z,2.3823
2024-03-24T02:31:05.204Z,2.3396
2024-03-24T02:32:10.114Z,2.3129
2024-03-24T02:33:14.920Z,2.2568
2024-03-24T02:34:19.788Z,2.2702
2024-03-24T02:35:24.674Z,2.3262
2024-03-24T02:36:29.447Z,2.3396
2024-03-24T02:37:34.376Z,2.4090
2024-03-24T02:38:39.124Z,2.4384
2024-03-24T02:39:43.939Z,2.4651
2024-03-24T02:40:49.216Z,2.4945
2024-03-24T02:41:54.053Z,2.5639
2024-03-24T02:42:58.861Z,2.5639
2024-03-24T02:44:03.795Z,2.5933
2024-03-24T02:45:08.755Z,2.5639
2024-03-24T02:46:13.780Z,2.6493
2024-03-24T02:47:18.534Z,2.6493
2024-03-24T02:48:23.296Z,2.6333
2024-03-24T02:49:28.250Z,2.6760
2024-03-24T02:50:33.039Z,2.6894
2024-03-24T02:51:37.855Z,2.6894
2024-03-24T02:52:42.823Z,2.7054
2024-03-24T02:53:47.787Z,2.6760
2024-03-24T02:54:52.719Z,2.6894
2024-03-24T02:55:57.507Z,2.7214
2024-03-24T02:57:02.392Z,2.6333
2024-03-24T02:58:07.360Z,2.6333
2024-03-24T02:59:12.093Z,2.6493
2024-03-24T03:00:16.887Z,2.6894
2024-03-24T03:01:21.857Z,2.7054
2024-03-24T03:02:26.604Z,2.6760
2024-03-24T03:03:31.450Z,2.6760
2024-03-24T03:04:36.215Z,2.6627
2024-03-24T03:05:41.053Z,2.7054
2024-03-24T03:06:45.846Z,2.6627
2024-03-24T03:07:50.659Z,2.6894
2024-03-24T03:08:55.624Z,2.7348
2024-03-24T03:10:00.576Z,2.7348
2024-03-24T03:11:05.502Z,2.6894
2024-03-24T03:12:10.269Z,2.7775
2024-03-24T03:13:15.177Z,2.7054
2024-03-24T03:14:20.075Z,2.7348
2024-03-24T03:15:24.846Z,2.7348
2024-03-24T03:16:29.700Z,2.7348
2024-03-24T03:17:34.644Z,2.7481
2024-03-24T03:18:39.447Z,2.6894
2024-03-24T03:19:44.255Z,2.6493
2024-03-24T03:20:49.200Z,2.7054
2024-03-24T03:21:54.003Z,2.6333
2024-03-24T03:22:58.822Z,2.5933
2024-03-24T03:24:03.607Z,2.5933
2024-03-24T03:25:08.463Z,2.5372
2024-03-24T03:26:13.384Z,2.5933
2024-03-24T03:27:18.323Z,2.5505
2024-03-24T03:28:23.073Z,2.5212
2024-03-24T03:29:27.946Z,2.5212
2024-03-24T03:30:32.869Z,2.4651
2024-03-24T03:31:37.654Z,2.5078
2024-03-24T03:32:42.509Z,2.5372
2024-03-24T03:33:47.445Z,2.5505
2024-03-24T03:34:52.193Z,2.4090
2024-03-24T03:35:57.084Z,2.3823
2024-03-24T03:37:02.003Z,2.3823
2024-03-24T03:38:06.771Z,2.3396
2024-03-24T03:39:11.614Z,2.3690
2024-03-24T03:40:16.557Z,2.3262
2024-03-24T03:41:21.304Z,2.3129
2024-03-24T03:42:26.192Z,2.2835
2024-03-24T03:43:31.114Z,1.9898
2024-03-24T03:44:35.881Z,1.8189
2024-03-24T03:45:40.876Z,1.8322
2024-03-24T03:46:45.689Z,1.7334
2024-03-24T03:47:50.457Z,1.7628
2024-03-24T03:48:55.627Z,1.7201
2024-03-24T03:50:00.591Z,1.6934
2024-03-24T03:51:05.541Z,1.7334
2024-03-24T03:52:10.545Z,1.7761
2024-03-24T03:53:15.465Z,1.8189
2024-03-24T03:54:20.393Z,1.9203
2024-03-24T03:55:25.187Z,1.9203
2024-03-24T03:56:30.075Z,1.9203
2024-03-24T03:57:34.887Z,2.0031
2024-03-24T03:58:39.679Z,2.0325
2024-03-24T03:59:44.555Z,2.0592
2024-03-24T04:00:49.503Z,2.1447
2024-03-24T04:01:54.306Z,2.2007
2024-03-24T04:02:59.137Z,2.2141
2024-03-24T04:04:04.007Z,2.2835
2024-03-24T04:05:08.813Z,2.3129
2024-03-24T04:06:13.685Z,2.2835
2024-03-24T04:07:18.609Z,2.2835
2024-03-24T04:08:23.451Z,2.2969
2024-03-24T04:09:28.254Z,2.2969
2024-03-24T04:10:33.148Z,2.2969
2024-03-24T04:11:37.977Z,2.2702
2024-03-24T04:12:42.708Z,2.2835
2024-03-24T04:13:47.547Z,2.2969
2024-03-24T04:14:52.454Z,2.3823
2024-03-24T04:15:57.372Z,2.3529
2024-03-24T04:17:02.294Z,2.3129
2024-03-24T04:18:07.079Z,2.3129
2024-03-24T04:19:11.941Z,2.2835
2024-03-24T04:20:16.854Z,2.3129
2024-03-24T04:21:21.677Z,2.3690
2024-03-24T04:22:26.523Z,2.3262
2024-03-24T04:23:31.403Z,2.2702
2024-03-24T04:24:36.199Z,2.3129
2024-03-24T04:25:41.000Z,2.3262
2024-03-24T04:26:45.969Z,2.3396
2024-03-24T04:27:50.764Z,2.3396
2024-03-24T04:28:55.628Z,2.3262
2024-03-24T04:30:00.510Z,2.3529
2024-03-24T04:31:05.376Z,2.3957
2024-03-24T04:32:10.151Z,2.3957
2024-03-24T04:33:15.084Z,2.3396
2024-03-24T04:34:19.867Z,2.2835
2024-03-24T04:35:24.780Z,2.2702
2024-03-24T04:36:29.627Z,2.2702
2024-03-24T04:37:34.405Z,2.2702
2024-03-24T04:38:39.296Z,2.2408
2024-03-24T04:39:44.218Z,2.2141
2024-03-24T04:40:49.226Z,2.2141
2024-03-24T04:41:54.187Z,2.2007
2024-03-24T04:42:58.966Z,2.2007
2024-03-24T04:44:03.778Z,2.2007
2024-03-24T04:45:08.568Z,2.2408
2024-03-24T04:46:13.396Z,2.2141
2024-03-24T04:47:18.344Z,2.2274
2024-03-24T04:48:23.314Z,2.1847
2024-03-24T04:49:28.269Z,2.1847
2024-03-24T04:50:33.051Z,2.1847
2024-03-24T04:51:37.864Z,2.2274
2024-03-24T04:52:45.459Z,2.2274
2024-03-24T04:53:50.645Z,2.2702
2024-03-24T04:54:55.696Z,2.2408
2024-03-24T04:56:00.587Z,2.1714
2024-03-24T04:57:05.537Z,2.2007
2024-03-24T04:58:10.317Z,2.1714
2024-03-24T04:59:15.141Z,2.2408
2024-03-24T05:00:20.131Z,2.2835
2024-03-24T05:01:25.066Z,2.2969
2024-03-24T05:02:30.055Z,2.2702
2024-03-24T05:03:35.004Z,2.2835
2024-03-24T05:04:39.944Z,2.2568
2024-03-24T05:05:44.845Z,2.2702
2024-03-24T05:06:49.659Z,2.2835
2024-03-24T05:07:54.505Z,2.2141
2024-03-24T05:08:59.438Z,2.1714
2024-03-24T05:10:04.229Z,2.2568
2024-03-24T05:11:09.076Z,2.2408
2024-03-24T05:12:13.998Z,2.2408
2024-03-24T05:13:18.782Z,2.2835
2024-03-24T05:14:23.642Z,2.0592
2024-03-24T05:15:28.513Z,2.0325
2024-03-24T05:16:33.290Z,1.9337
2024-03-24T05:17:38.214Z,1.8055
2024-03-24T05:18:43.033Z,1.7067
2024-03-24T05:19:47.828Z,1.5251
2024-03-24T05:20:52.766Z,1.4691
2024-03-24T05:21:57.663Z,1.3970
2024-03-24T05:23:02.495Z,1.4263
2024-03-24T05:24:07.250Z,1.4530
2024-03-24T05:25:12.064Z,1.3275
2024-03-24T05:26:16.928Z,1.3008
2024-03-24T05:27:21.889Z,1.2448
2024-03-24T05:28:27.093Z,1.2448
2024-03-24T05:29:35.233Z,1.2154
2024-03-24T05:30:40.025Z,1.1166
2024-03-24T05:31:44.964Z,1.0445
2024-03-24T05:32:49.886Z,1.0311
2024-03-24T05:33:54.859Z,0.9457
2024-03-24T05:34:59.817Z,0.9056
2024-03-24T05:36:04.597Z,0.7641
2024-03-24T05:37:09.402Z,0.8335
2024-03-24T05:38:14.211Z,0.7774
2024-03-24T05:39:18.999Z,0.7774
2024-03-24T05:40:23.990Z,0.6813
2024-03-24T05:41:28.935Z,0.6519
2024-03-24T05:42:33.708Z,0.8495
2024-03-24T05:43:38.510Z,0.7374
2024-03-24T05:44:43.318Z,0.7641
2024-03-24T05:45:48.108Z,0.8335
2024-03-24T05:46:52.909Z,0.7214
2024-03-24T05:47:57.722Z,0.8495
2024-03-24T05:49:02.520Z,0.7507
2024-03-24T05:50:07.325Z,0.6947
2024-03-24T05:51:12.279Z,0.7080
2024-03-24T05:52:19.027Z,0.7935
2024-03-24T05:53:24.978Z,0.7641
2024-03-24T05:54:29.732Z,0.8896
2024-03-24T05:55:34.636Z,0.8762
2024-03-24T05:56:39.413Z,0.7641
2024-03-24T05:57:44.303Z,0.9457
2024-03-24T05:58:49.157Z,0.9884
2024-03-24T05:59:53.942Z,1.0872
2024-03-24T06:00:58.823Z,1.1593
2024-03-24T06:02:03.785Z,1.1326
2024-03-24T06:03:08.546Z,1.2154
2024-03-24T06:04:13.449Z,1.3569
2024-03-24T06:05:18.306Z,1.3409
2024-03-24T06:06:23.087Z,1.4958
2024-03-24T06:07:27.955Z,1.4824
2024-03-24T06:08:32.870Z,1.4958
2024-03-24T06:09:37.653Z,1.5652
2024-03-24T06:10:42.548Z,1.6506
2024-03-24T06:11:47.419Z,1.6773
2024-03-24T06:12:52.187Z,1.6640
2024-03-24T06:13:57.084Z,1.6373
2024-03-24T06:15:01.903Z,1.6640
2024-03-24T06:16:06.670Z,1.7628
2024-03-24T06:17:11.456Z,1.7494
2024-03-24T06:18:16.307Z,1.7628
2024-03-24T06:19:21.110Z,1.7761
2024-03-24T06:20:25.905Z,1.7334
2024-03-24T06:21:30.671Z,1.7761
2024-03-24T06:22:35.486Z,1.7494
2024-03-24T06:23:40.439Z,1.7895
2024-03-24T06:24:45.351Z,1.8616
2024-03-24T06:25:50.139Z,1.9337
2024-03-24T06:26:55.003Z,1.9604
2024-03-24T06:27:59.926Z,2.0459
2024-03-24T06:29:04.745Z,2.1153
2024-03-24T06:30:09.565Z,2.1286
2024-03-24T06:31:14.463Z,2.1286
2024-03-24T06:32:19.267Z,2.2141
2024-03-24T06:33:24.144Z,2.2408
2024-03-24T06:34:29.083Z,2.2969
2024-03-24T06:35:33.835Z,2.3529
2024-03-24T06:36:38.695Z,2.3262
2024-03-24T06:37:43.476Z,2.3823
2024-03-24T06:38:48.285Z,2.2969
2024-03-24T06:39:53.248Z,2.3129
2024-03-24T06:40:58.034Z,2.3396
2024-03-24T06:42:02.835Z,2.4250
2024-03-24T06:43:07.664Z,2.4384
2024-03-24T06:44:12.454Z,2.4090
2024-03-24T06:45:17.407Z,2.4945
2024-03-24T06:46:22.370Z,2.5772
2024-03-24T06:47:27.293Z,2.5372
2024-03-24T06:48:32.091Z,2.5933
2024-03-24T06:49:36.921Z,2.5372
2024-03-24T06:50:41.828Z,2.5933
2024-03-24T06:51:46.660Z,2.5505
2024-03-24T06:52:51.480Z,2.6066
2024-03-24T06:53:56.375Z,2.6066
2024-03-24T06:55:01.182Z,2.5505
2024-03-24T06:56:06.038Z,2.5372
2024-03-24T06:57:10.998Z,2.6200
2024-03-24T06:58:15.821Z,2.5505
2024-03-24T06:59:20.594Z,2.5639
2024-03-24T07:00:25.403Z,2.6200
2024-03-24T07:01:30.199Z,2.6760
2024-03-24T07:02:35.168Z,2.6493
2024-03-24T07:03:40.130Z,2.6333
2024-03-24T07:04:45.092Z,2.7615
2024-03-24T07:05:50.061Z,2.7054
2024-03-24T07:06:55.009Z,2.9164
2024-03-24T07:07:59.969Z,2.8603
2024-03-24T07:09:04.934Z,2.8737
2024-03-24T07:10:09.867Z,2.7054
2024-03-24T07:11:14.641Z,2.7909
2024-03-24T07:12:19.492Z,2.8176
2024-03-24T07:13:24.498Z,2.8176
2024-03-24T07:14:29.215Z,2.9030
2024-03-24T07:15:34.055Z,2.9297
2024-03-24T07:16:38.961Z,2.7775
2024-03-24T07:17:43.736Z,2.9725
2024-03-24T07:18:48.610Z,2.9591
2024-03-24T07:19:53.546Z,3.0713
2024-03-24T07:20:58.306Z,3.1968
2024-03-24T07:22:03.136Z,3.4344
2024-03-24T07:23:08.086Z,3.7469
2024-03-24T07:24:12.862Z,3.5492
2024-03-24T07:25:17.657Z,3.5225
2024-03-24T07:26:24.921Z,3.7175
2024-03-24T07:27:30.230Z,3.5092
2024-03-24T07:28:34.976Z,3.4344
2024-03-24T07:29:39.840Z,3.3650
2024-03-24T07:30:44.789Z,3.2956
2024-03-24T07:31:49.726Z,3.4077
2024-03-24T07:32:54.517Z,3.5225
2024-03-24T07:33:59.337Z,3.3783
2024-03-24T07:35:04.289Z,3.2956
2024-03-24T07:36:09.233Z,3.3944
2024-03-24T07:37:14.023Z,3.2528
2024-03-24T07:38:18.844Z,3.3516
2024-03-24T07:39:23.822Z,3.4504
2024-03-24T07:40:28.767Z,3.6347
2024-03-24T07:41:33.748Z,3.6774
2024-03-24T07:42:39.784Z,3.7736
2024-03-24T07:43:45.546Z,3.9017
2024-03-24T07:44:50.351Z,3.9418
2024-03-24T07:45:55.158Z,3.9979
2024-03-24T07:46:59.922Z,3.9151
2024-03-24T07:48:04.764Z,3.8457
2024-03-24T07:49:09.714Z,4.2382
2024-03-24T07:50:14.481Z,4.1821
2024-03-24T07:51:19.342Z,4.2382
2024-03-24T07:52:24.279Z,3.9845
2024-03-24T07:53:29.027Z,4.1955
2024-03-24T07:54:33.910Z,4.2088
2024-03-24T07:55:38.824Z,4.0967
2024-03-24T07:56:43.589Z,4.2088
2024-03-24T07:57:48.442Z,4.0700
2024-03-24T07:58:53.382Z,4.1955
2024-03-24T07:59:58.266Z,4.3931
2024-03-24T08:01:03.063Z,4.3370
2024-03-24T08:02:07.942Z,4.1260
2024-03-24T08:03:12.843Z,4.1260
2024-03-24T08:04:17.696Z,4.2676
2024-03-24T08:05:22.516Z,4.3370
2024-03-24T08:06:27.412Z,4.2382
2024-03-24T08:07:32.260Z,4.2676
2024-03-24T08:08:37.055Z,4.3370
2024-03-24T08:09:41.846Z,4.3236
2024-03-24T08:10:46.695Z,4.3664
2024-03-24T08:11:51.622Z,4.2676
2024-03-24T08:12:56.405Z,4.6334
2024-03-24T08:14:01.230Z,4.8016
2024-03-24T08:15:06.190Z,4.6174
2024-03-24T08:16:10.956Z,4.5052
2024-03-24T08:17:15.773Z,4.5212
2024-03-24T08:18:20.758Z,4.3530
2024-03-24T08:19:25.565Z,4.4091
2024-03-24T08:20:30.437Z,4.5613
2024-03-24T08:21:35.328Z,4.4358
2024-03-24T08:22:40.120Z,4.4652
2024-03-24T08:23:44.935Z,4.2809
2024-03-24T08:24:49.885Z,4.5613
2024-03-24T08:25:54.712Z,4.4492
2024-03-24T08:26:59.470Z,4.1821
2024-03-24T08:28:04.429Z,4.4358
2024-03-24T08:29:09.206Z,4.7028
2024-03-24T08:30:14.036Z,4.5212
2024-03-24T08:31:18.991Z,4.3797
2024-03-24T08:32:23.957Z,4.4358
2024-03-24T08:33:28.738Z,4.4091
2024-03-24T08:34:33.557Z,4.3370
2024-03-24T08:35:38.480Z,4.4224
2024-03-24T08:36:43.273Z,4.5346
2024-03-24T08:37:48.114Z,4.4091
2024-03-24T08:38:53.058Z,4.3664
2024-03-24T08:39:57.821Z,4.4224
2024-03-24T08:41:02.695Z,4.5052
2024-03-24T08:42:07.582Z,4.4224
2024-03-24T08:43:12.368Z,4.3370
2024-03-24T08:44:17.138Z,4.3530
2024-03-24T08:45:21.954Z,4.3103
2024-03-24T08:46:26.881Z,4.2382
2024-03-24T08:47:31.691Z,4.5773
2024-03-24T08:48:42.043Z,5.2930
2024-03-24T08:49:47.174Z,5.4212
2024-03-24T08:50:52.201Z,5.8858
2024-03-24T08:51:57.067Z,5.2529
2024-03-24T08:53:01.953Z,4.7295
2024-03-24T08:54:06.755Z,5.0553
2024-03-24T08:55:11.673Z,4.8978
2024-03-24T08:56:16.516Z,4.4224
2024-03-24T08:57:21.334Z,4.1821
2024-03-24T08:58:26.180Z,4.4492
2024-03-24T08:59:30.969Z,4.2676
2024-03-24T09:00:35.747Z,4.2222
2024-03-24T09:01:41.345Z,4.2969
2024-03-24T09:02:46.265Z,3.9151
2024-03-24T09:03:51.049Z,3.9578
2024-03-24T09:04:55.945Z,4.1821
2024-03-24T09:06:00.846Z,4.6735
2024-03-24T09:07:05.656Z,4.4224
2024-03-24T09:08:10.410Z,4.9138
2024-03-24T09:09:15.250Z,4.8711
2024-03-24T09:10:20.021Z,4.8150
2024-03-24T09:11:24.805Z,4.7723
2024-03-24T09:12:29.591Z,4.8283
2024-03-24T09:13:34.356Z,5.4212
2024-03-24T09:14:39.309Z,5.5467
2024-03-24T09:15:44.247Z,6.1795
2024-03-24T09:16:49.030Z,5.9686
2024-03-24T09:17:53.865Z,5.8270
2024-03-24T09:18:58.800Z,6.0407
2024-03-24T09:20:03.580Z,5.6455
2024-03-24T09:21:08.695Z,5.4612
2024-03-24T09:22:13.503Z,5.6855
2024-03-24T09:23:18.264Z,5.8431
2024-03-24T09:24:23.074Z,5.8858
2024-03-24T09:25:27.939Z,6.0540
2024-03-24T09:26:32.733Z,6.3611
2024-03-24T09:27:37.531Z,6.4893
2024-03-24T09:28:42.519Z,7.5868
2024-03-24T09:29:47.511Z,6.8284
2024-03-24T09:30:52.437Z,7.2610
2024-03-24T09:31:57.391Z,7.5307
2024-03-24T09:33:02.196Z,7.6562
2024-03-24T09:34:06.973Z,7.2343
2024-03-24T09:35:13.553Z,7.6562
2024-03-24T09:36:18.712Z,8.5855
2024-03-24T09:37:23.535Z,7.1782
2024-03-24T09:38:30.853Z,6.2222
2024-03-24T09:39:37.534Z,6.1662
2024-03-24T09:40:42.334Z,7.3892
2024-03-24T09:41:47.143Z,6.3210
2024-03-24T09:42:52.113Z,5.9846
2024-03-24T09:43:56.883Z,6.1929
2024-03-24T09:45:01.662Z,7.2477
2024-03-24T09:46:06.452Z,7.3037
2024-03-24T09:47:11.314Z,6.2490
2024-03-24T09:48:16.284Z,5.9686
2024-03-24T09:49:21.227Z,5.8137
2024-03-24T09:50:26.000Z,6.0246
2024-03-24T09:51:30.832Z,7.5734
2024-03-24T09:52:35.762Z,8.8365
2024-03-24T09:53:40.560Z,8.3612
2024-03-24T09:54:45.411Z,7.5174
2024-03-24T09:55:50.318Z,10.2010
2024-03-24T09:56:55.108Z,9.4987
2024-03-24T09:58:07.017Z,7.9526
2024-03-24T09:59:10.727Z,7.3331
2024-03-24T10:00:15.546Z,7.1088
2024-03-24T10:01:20.347Z,8.1476
2024-03-24T10:02:25.232Z,11.0903
2024-03-24T10:03:30.003Z,7.7283
2024-03-24T10:04:34.788Z,8.5695
2024-03-24T10:05:39.714Z,7.7123
2024-03-24T10:06:44.500Z,6.9406
2024-03-24T10:07:49.322Z,6.6308
2024-03-24T10:08:54.102Z,6.7563
2024-03-24T10:09:58.996Z,6.1368
2024-03-24T10:11:03.983Z,6.1101
2024-03-24T10:12:08.743Z,6.3344
2024-03-24T10:13:13.565Z,6.5026
2024-03-24T10:14:18.515Z,6.3771
2024-03-24T10:15:23.474Z,5.9419
2024-03-24T10:16:28.485Z,5.7282
2024-03-24T10:17:33.387Z,5.7977
2024-03-24T10:18:38.373Z,5.6294
2024-03-24T10:19:43.277Z,5.4479
2024-03-24T10:20:48.055Z,5.6294
2024-03-24T10:21:52.941Z,5.5173
2024-03-24T10:22:57.843Z,4.9271
2024-03-24T10:24:02.704Z,5.0553
2024-03-24T10:25:07.491Z,4.8150
2024-03-24T10:26:12.261Z,4.6601
2024-03-24T10:27:17.091Z,4.8577
2024-03-24T10:28:22.036Z,4.8417
2024-03-24T10:29:26.967Z,4.9138
2024-03-24T10:30:31.765Z,4.7589
2024-03-24T10:31:36.597Z,4.8978
2024-03-24T10:32:41.525Z,4.9138
2024-03-24T10:33:46.316Z,5.5734
2024-03-24T10:34:51.162Z,4.9699
2024-03-24T10:35:56.111Z,7.5868
2024-03-24T10:37:00.909Z,7.2049
2024-03-24T10:38:05.711Z,8.2891
2024-03-24T10:39:10.669Z,8.0915
2024-03-24T10:40:15.424Z,6.0967
2024-03-24T10:41:20.209Z,6.9112
2024-03-24T10:42:25.041Z,8.1048
2024-03-24T10:43:29.879Z,8.5294
2024-03-24T10:44:34.664Z,8.7804
2024-03-24T10:45:39.477Z,7.5174
2024-03-24T10:46:44.431Z,7.6989
2024-03-24T10:47:49.230Z,8.2624
2024-03-24T10:48:54.046Z,8.2490
2024-03-24T10:49:58.999Z,8.2891
2024-03-24T10:51:03.794Z,9.5254
2024-03-24T10:52:08.681Z,8.9807
2024-03-24T10:53:13.446Z,8.1743
2024-03-24T10:54:18.222Z,10.1743
2024-03-24T10:55:23.154Z,9.1756
2024-03-24T10:56:28.135Z,10.3025
2024-03-24T10:57:32.917Z,9.7684
2024-03-24T10:58:37.711Z,9.0208
2024-03-24T10:59:42.675Z,7.8244
2024-03-24T11:00:47.454Z,7.6162
2024-03-24T11:01:52.290Z,6.9673
2024-03-24T11:02:57.211Z,7.3598
2024-03-24T11:04:02.014Z,6.8284
2024-03-24T11:05:06.826Z,6.3210
2024-03-24T11:06:14.769Z,5.7282
2024-03-24T11:07:20.894Z,5.3090
2024-03-24T11:08:25.810Z,4.5613
2024-03-24T11:09:30.607Z,4.2809
2024-03-24T11:10:35.461Z,4.0833
2024-03-24T11:11:40.365Z,3.5092
2024-03-24T11:12:45.140Z,3.3089
2024-03-24T11:13:50.016Z,3.1701
2024-03-24T11:14:54.943Z,2.9858
2024-03-24T11:15:59.705Z,3.2822
2024-03-24T11:17:04.596Z,3.6347
2024-03-24T11:18:09.499Z,3.7041
2024-03-24T11:19:14.282Z,4.3931
2024-03-24T11:20:19.134Z,4.9966
2024-03-24T11:21:24.086Z,4.6468
2024-03-24T11:22:28.869Z,4.7162
2024-03-24T11:23:33.707Z,4.8844
2024-03-24T11:24:38.610Z,5.4051
2024-03-24T11:25:43.452Z,5.2369
2024-03-24T11:26:48.279Z,5.7015
2024-03-24T11:27:53.242Z,5.6855
2024-03-24T11:28:58.184Z,5.6027
2024-03-24T11:30:03.179Z,6.7857
2024-03-24T11:31:08.117Z,7.1088
2024-03-24T11:32:13.131Z,6.9406
2024-03-24T11:33:18.013Z,7.5040
2024-03-24T11:34:22.956Z,6.1234
2024-03-24T11:35:27.743Z,6.1368
2024-03-24T11:36:32.650Z,5.9686
2024-03-24T11:37:37.616Z,7.0661
2024-03-24T11:38:42.403Z,7.5868
2024-03-24T11:39:47.191Z,8.4012
2024-03-24T11:40:53.486Z,8.8365
2024-03-24T11:41:58.415Z,8.5000
2024-03-24T11:43:03.378Z,8.3185
2024-03-24T11:44:08.295Z,8.7537
2024-03-24T11:45:13.278Z,7.8805
2024-03-24T11:46:18.055Z,8.6683
2024-03-24T11:47:22.898Z,8.1476
2024-03-24T11:48:27.807Z,9.1489
2024-03-24T11:49:32.595Z,9.6109
2024-03-24T11:50:37.445Z,9.3572
2024-03-24T11:51:42.384Z,7.9099
2024-03-24T11:52:49.362Z,7.6162
2024-03-24T11:53:55.817Z,9.1062
2024-03-24T11:55:00.642Z,8.1609
2024-03-24T11:56:05.441Z,8.6816
2024-03-24T11:57:10.400Z,8.5695
2024-03-24T11:58:15.225Z,8.4573
2024-03-24T11:59:19.998Z,8.6976
2024-03-24T12:00:24.962Z,9.1890
2024-03-24T12:01:29.927Z,9.3732
2024-03-24T12:02:34.876Z,9.1756
2024-03-24T12:03:39.849Z,9.4293
2024-03-24T12:04:44.742Z,7.9660
2024-03-24T12:05:49.552Z,8.2063
2024-03-24T12:06:54.418Z,7.8538
2024-03-24T12:07:59.325Z,8.5000
2024-03-24T12:09:04.133Z,7.7123
2024-03-24T12:10:08.951Z,7.8111
2024-03-24T12:11:13.842Z,7.7844
2024-03-24T12:12:18.657Z,7.8805
2024-03-24T12:13:23.519Z,8.5134
2024-03-24T12:14:28.403Z,8.5134
2024-03-24T12:15:33.221Z,8.0087
2024-03-24T12:16:38.080Z,7.7550
2024-03-24T12:17:42.994Z,8.0087
2024-03-24T12:18:47.790Z,7.8965
2024-03-24T12:19:52.541Z,7.8672
2024-03-24T12:20:57.339Z,8.8365
2024-03-24T12:22:02.237Z,9.2611
2024-03-24T12:23:07.199Z,8.9059
2024-03-24T12:24:12.097Z,10.1877
2024-03-24T12:25:16.914Z,7.8244
2024-03-24T12:26:21.742Z,7.6856
2024-03-24T12:27:26.663Z,8.3612
2024-03-24T12:28:31.608Z,10.1743
2024-03-24T12:29:36.405Z,8.8365
2024-03-24T12:30:41.216Z,9.5975
2024-03-24T12:31:46.043Z,8.6416
2024-03-24T12:32:50.881Z,9.2184
2024-03-24T12:33:55.780Z,7.8405
2024-03-24T12:35:00.575Z,8.4573
2024-03-24T12:36:05.430Z,7.8805
2024-03-24T12:37:10.365Z,7.3892
2024-03-24T12:38:15.183Z,7.1088
2024-03-24T12:39:20.005Z,7.0928
2024-03-24T12:40:24.957Z,6.8685
2024-03-24T12:41:29.923Z,7.1221
2024-03-24T12:42:34.865Z,6.9245
2024-03-24T12:43:39.841Z,7.1088
2024-03-24T12:44:44.791Z,7.4052
2024-03-24T12:45:49.767Z,8.6549
2024-03-24T12:46:54.710Z,9.8646
2024-03-24T12:47:59.506Z,9.3305
2024-03-24T12:49:04.325Z,8.9940
2024-03-24T12:50:17.641Z,9.8085
2024-03-24T12:51:19.960Z,9.5682
2024-03-24T12:52:24.776Z,9.6242
2024-03-24T12:53:29.596Z,9.4427
2024-03-24T12:54:34.491Z,10.3452
2024-03-24T12:55:39.308Z,10.3880
2024-03-24T12:56:44.139Z,10.2171
2024-03-24T12:57:49.092Z,10.1049
2024-03-24T12:58:56.242Z,10.3025
2024-03-24T13:00:02.874Z,11.4561
2024-03-24T13:01:07.640Z,10.0328
2024-03-24T13:02:12.487Z,9.9634
2024-03-24T13:03:17.339Z,9.1623
2024-03-24T13:04:22.123Z,10.7084
2024-03-24T13:05:27.026Z,10.7645
2024-03-24T13:06:31.982Z,10.6683
2024-03-24T13:07:36.764Z,8.7537
2024-03-24T13:08:41.602Z,8.7537
2024-03-24T13:09:46.400Z,7.9660
2024-03-24T13:10:51.271Z,7.7123
2024-03-24T13:11:58.102Z,7.4479
2024-03-24T13:13:04.635Z,7.2210
2024-03-24T13:14:09.612Z,7.2210
2024-03-24T13:15:14.555Z,6.9806
2024-03-24T13:16:19.432Z,7.2343
2024-03-24T13:17:24.289Z,7.2049
2024-03-24T13:18:29.104Z,7.3331
2024-03-24T13:19:34.040Z,7.4479
2024-03-24T13:20:38.814Z,7.8244
2024-03-24T13:21:43.714Z,7.8672
2024-03-24T13:22:48.552Z,8.4173
2024-03-24T13:23:53.391Z,8.6816
2024-03-24T13:24:58.235Z,8.5561
2024-03-24T13:26:03.036Z,8.2624
2024-03-24T13:27:07.836Z,8.3185
2024-03-24T13:28:12.812Z,7.6722
2024-03-24T13:29:17.575Z,8.9220
2024-03-24T13:30:22.426Z,7.9232